createdAt,value
2019-05-28T00:01:45.713Z,24.40
2019-05-28T00:04:17.136Z,24.17
2019-05-28T00:06:47.343Z,23.00
2019-05-28T00:09:18.567Z,24.80
2019-05-28T00:11:49.687Z,23.70
2019-05-28T00:14:19.769Z,24.13
2019-05-28T00:16:48.257Z,24.93
2019-05-28T00:19:16.638Z,25.23
2019-05-28T00:21:44.998Z,25.03
2019-05-28T00:24:17.710Z,25.73
2019-05-28T00:26:47.419Z,25.47
2019-05-28T00:29:17.302Z,24.83
2019-05-28T00:31:45.902Z,25.50
2019-05-28T00:34:14.487Z,24.73
2019-05-28T00:36:42.905Z,26.67
2019-05-28T00:39:11.353Z,28.13
2019-05-28T00:41:39.874Z,26.87
2019-05-28T00:44:09.669Z,28.73
2019-05-28T00:46:37.929Z,27.23
2019-05-28T00:49:06.093Z,29.20
2019-05-28T00:51:35.543Z,28.17
2019-05-28T00:54:04.516Z,25.17
2019-05-28T00:56:33.485Z,23.57
2019-05-28T00:59:03.130Z,23.57
2019-05-28T01:01:31.429Z,23.73
2019-05-28T01:03:59.736Z,22.10
2019-05-28T01:06:28.241Z,26.27
2019-05-28T01:08:56.720Z,24.90
2019-05-28T01:11:25.101Z,23.87
2019-05-28T01:13:53.616Z,24.93
2019-05-28T01:16:22.147Z,24.13
2019-05-28T01:18:52.270Z,25.10
2019-05-28T01:21:21.287Z,22.67
2019-05-28T01:23:49.708Z,21.20
2019-05-28T01:26:17.927Z,21.23
2019-05-28T01:28:46.858Z,22.87
2019-05-28T01:31:17.365Z,21.40
2019-05-28T01:33:45.526Z,22.17
2019-05-28T01:36:13.885Z,24.93
2019-05-28T01:38:42.134Z,26.47
2019-05-28T01:41:11.993Z,28.20
2019-05-28T01:43:40.456Z,25.87
2019-05-28T01:46:09.043Z,25.07
2019-05-28T01:48:38.046Z,25.50
2019-05-28T01:51:06.263Z,24.47
2019-05-28T01:53:34.431Z,24.70
2019-05-28T01:56:03.077Z,27.87
2019-05-28T01:58:31.385Z,26.73
2019-05-28T02:01:12.097Z,26.20
2019-05-28T02:03:29.436Z,24.53
2019-05-28T02:05:57.640Z,25.67
2019-05-28T02:08:28.601Z,23.90
2019-05-28T02:10:56.905Z,24.27
2019-05-28T02:13:27.037Z,22.73
2019-05-28T02:15:55.444Z,22.83
2019-05-28T02:18:23.731Z,22.77
2019-05-28T02:20:51.934Z,24.07
2019-05-28T02:23:21.814Z,23.67
2019-05-28T02:25:50.017Z,26.03
2019-05-28T02:28:20.366Z,27.43
2019-05-28T02:30:48.723Z,27.97
2019-05-28T02:33:16.997Z,27.83
2019-05-28T02:35:45.229Z,27.67
2019-05-28T02:38:13.345Z,29.50
2019-05-28T02:40:41.786Z,28.33
2019-05-28T02:43:10.363Z,26.30
2019-05-28T02:45:38.790Z,26.87
2019-05-28T02:48:07.032Z,26.80
2019-05-28T02:50:57.853Z,27.47
2019-05-28T02:53:27.378Z,28.30
2019-05-28T02:55:56.670Z,27.90
2019-05-28T02:58:31.492Z,26.57
2019-05-28T03:01:00.761Z,26.40
2019-05-28T03:03:30.269Z,27.13
2019-05-28T03:05:59.954Z,25.80
2019-05-28T03:08:32.056Z,27.80
2019-05-28T03:11:03.638Z,27.53
2019-05-28T03:13:31.371Z,26.60
2019-05-28T03:16:02.207Z,27.93
2019-05-28T03:18:34.034Z,29.17
2019-05-28T03:21:03.136Z,27.67
2019-05-28T03:23:34.517Z,28.13
2019-05-28T03:26:02.995Z,29.17
2019-05-28T03:28:31.192Z,27.60
2019-05-28T03:30:59.546Z,28.87
2019-05-28T03:33:28.482Z,27.70
2019-05-28T03:35:57.671Z,28.83
2019-05-28T03:38:26.933Z,28.67
2019-05-28T03:40:55.346Z,28.70
2019-05-28T03:43:23.558Z,29.23
2019-05-28T03:45:52.696Z,31.67
2019-05-28T03:48:20.878Z,31.33
2019-05-28T03:50:49.182Z,32.87
2019-05-28T03:53:17.375Z,32.17
2019-05-28T03:55:45.740Z,29.23
2019-05-28T03:58:14.148Z,29.73
2019-05-28T04:00:42.501Z,30.37
2019-05-28T04:03:10.732Z,27.57
2019-05-28T04:05:38.959Z,28.07
2019-05-28T04:08:08.307Z,29.37
2019-05-28T04:10:37.537Z,30.07
2019-05-28T04:13:07.126Z,29.60
2019-05-28T04:15:35.764Z,30.37
2019-05-28T04:18:05.481Z,28.70
2019-05-28T04:20:33.668Z,29.57
2019-05-28T04:23:06.176Z,29.40
2019-05-28T04:25:34.349Z,31.13
2019-05-28T04:28:02.990Z,32.03
2019-05-28T04:30:32.771Z,30.43
2019-05-28T04:33:01.085Z,29.97
2019-05-28T04:35:29.291Z,29.77
2019-05-28T04:37:57.587Z,30.20
2019-05-28T04:40:25.995Z,30.57
2019-05-28T04:42:54.127Z,30.53
2019-05-28T04:45:22.657Z,32.63
2019-05-28T04:47:51.114Z,33.10
2019-05-28T04:50:19.407Z,32.47
2019-05-28T04:52:47.656Z,34.73
2019-05-28T04:55:15.859Z,30.93
2019-05-28T04:57:44.039Z,30.07
2019-05-28T05:00:12.612Z,31.70
2019-05-28T05:02:57.706Z,29.50
2019-05-28T05:05:11.489Z,29.03
2019-05-28T05:07:40.017Z,28.10
2019-05-28T05:10:09.368Z,30.23
2019-05-28T05:12:38.278Z,28.57
2019-05-28T05:15:09.288Z,28.13
2019-05-28T05:17:38.320Z,26.63
2019-05-28T05:20:09.698Z,26.53
2019-05-28T05:22:39.998Z,24.33
2019-05-28T05:25:09.829Z,26.33
2019-05-28T05:27:38.723Z,26.30
2019-05-28T05:30:08.026Z,26.07
2019-05-28T05:32:36.603Z,26.00
2019-05-28T05:35:06.168Z,25.20
2019-05-28T05:37:34.693Z,25.37
2019-05-28T05:40:29.650Z,25.63
2019-05-28T05:43:11.781Z,25.57
2019-05-28T05:45:55.299Z,26.47
2019-05-28T05:48:37.479Z,25.47
2019-05-28T05:51:19.922Z,24.27
2019-05-28T05:54:05.503Z,23.97
2019-05-28T05:56:40.268Z,24.53
2019-05-28T05:59:15.258Z,24.40
2019-05-28T06:01:49.887Z,23.23
2019-05-28T06:04:37.468Z,23.43
2019-05-28T06:07:20.110Z,22.23
2019-05-28T06:09:57.667Z,21.67
2019-05-28T06:15:16.127Z,19.70
2019-05-28T06:18:03.935Z,19.93
2019-05-28T06:20:46.190Z,19.63
2019-05-28T06:23:25.595Z,18.83
2019-05-28T06:26:14.120Z,16.80
2019-05-28T06:29:16.288Z,17.23
2019-05-28T06:32:11.245Z,16.70
2019-05-28T06:34:58.304Z,17.63
2019-05-28T06:37:27.130Z,17.00
2019-05-28T06:40:00.668Z,17.83
2019-05-28T06:42:29.601Z,16.80
2019-05-28T06:45:00.555Z,17.77
2019-05-28T06:47:32.441Z,16.67
2019-05-28T06:50:07.348Z,17.00
2019-05-28T06:52:40.512Z,15.53
2019-05-28T06:55:12.933Z,15.57
2019-05-28T06:57:48.195Z,14.43
2019-05-28T07:00:17.420Z,15.33
2019-05-28T07:02:47.362Z,15.30
2019-05-28T07:05:18.320Z,16.93
2019-05-28T07:07:48.105Z,16.50
2019-05-28T07:10:19.438Z,14.43
2019-05-28T07:12:48.921Z,14.37
2019-05-28T07:15:21.482Z,14.63
2019-05-28T07:18:40.430Z,14.53
2019-05-28T07:21:13.595Z,14.73
2019-05-28T07:23:44.828Z,15.37
2019-05-28T07:26:47.409Z,14.43
2019-05-28T07:30:00.930Z,14.10
2019-05-28T07:32:55.161Z,12.77
2019-05-28T07:35:51.357Z,13.57
2019-05-28T07:38:43.916Z,12.20
2019-05-28T07:41:36.263Z,13.17
2019-05-28T07:44:06.208Z,12.17
2019-05-28T07:46:39.268Z,12.97
2019-05-28T07:50:30.990Z,13.87
2019-05-28T07:52:56.334Z,13.80
2019-05-28T07:55:37.808Z,14.00
2019-05-28T07:58:50.248Z,13.83
2019-05-28T08:01:29.998Z,14.23
2019-05-28T08:04:10.606Z,13.63
2019-05-28T08:06:54.300Z,14.97
2019-05-28T08:09:39.624Z,15.57
2019-05-28T08:12:42.659Z,15.73
2019-05-28T08:16:16.963Z,15.50
2019-05-28T08:18:50.935Z,15.33
2019-05-28T08:21:32.138Z,15.73
2019-05-28T08:24:04.853Z,16.57
2019-05-28T08:26:33.397Z,17.37
2019-05-28T08:29:29.781Z,17.13
2019-05-28T08:32:28.125Z,15.73
2019-05-28T08:35:05.662Z,15.87
2019-05-28T08:38:03.950Z,13.23
2019-05-28T08:41:13.862Z,12.97
2019-05-28T08:43:55.966Z,12.60
2019-05-28T08:46:56.575Z,12.97
2019-05-28T08:49:36.467Z,13.93
2019-05-28T08:52:49.317Z,12.13
2019-05-28T08:56:06.474Z,12.27
2019-05-28T08:59:01.241Z,12.60
2019-05-28T09:04:32.424Z,13.20
2019-05-28T09:07:23.519Z,12.50
2019-05-28T09:11:07.784Z,12.00
2019-05-28T09:16:56.774Z,12.20
2019-05-28T09:19:27.158Z,12.60
2019-05-28T09:21:58.545Z,12.03
2019-05-28T09:27:42.573Z,11.60
2019-05-28T09:30:17.275Z,11.53
2019-05-28T09:36:12.992Z,10.77
2019-05-28T09:40:52.388Z,9.90
2019-05-28T09:42:27.796Z,11.00
2019-05-28T09:45:23.519Z,10.00
2019-05-28T09:48:25.092Z,10.47
2019-05-28T09:57:54.196Z,12.87
2019-05-28T10:00:29.357Z,9.13
2019-05-28T10:03:03.938Z,9.53
2019-05-28T10:05:36.256Z,9.80
2019-05-28T10:08:08.161Z,9.27
2019-05-28T10:10:36.920Z,10.00
2019-05-28T10:13:08.028Z,8.13
2019-05-28T10:15:37.766Z,7.83
2019-05-28T10:18:11.709Z,7.87
2019-05-28T10:23:48.982Z,7.97
2019-05-28T10:26:32.584Z,7.80
2019-05-28T10:50:13.553Z,8.33
2019-05-28T10:52:57.192Z,7.93
2019-05-28T11:08:22.775Z,10.27
2019-05-28T11:26:18.856Z,10.37
2019-05-28T11:28:54.564Z,9.47
2019-05-28T11:31:39.044Z,9.40
2019-05-28T11:34:23.281Z,9.53
2019-05-28T11:37:08.798Z,10.73
2019-05-28T11:40:17.643Z,12.60
2019-05-28T11:43:19.025Z,12.57
2019-05-28T11:46:40.629Z,13.93
2019-05-28T11:49:26.066Z,15.60
2019-05-28T11:52:28.436Z,15.00
2019-05-28T12:01:51.076Z,15.20
2019-05-28T12:14:34.357Z,17.23
2019-05-28T12:17:03.920Z,15.93
2019-05-28T12:19:33.591Z,18.23
2019-05-28T12:22:02.353Z,24.97
2019-05-28T12:24:30.777Z,17.67
2019-05-28T12:26:59.292Z,17.13
2019-05-28T12:29:27.565Z,17.93
2019-05-28T12:31:56.151Z,20.77
2019-05-28T12:34:24.472Z,15.77
2019-05-28T12:36:52.842Z,19.83
2019-05-28T12:39:21.306Z,21.07
2019-05-28T12:42:01.391Z,19.90
2019-05-28T12:44:20.825Z,13.43
2019-05-28T12:46:54.665Z,14.60
2019-05-28T12:49:28.164Z,11.97
2019-05-28T12:52:00.650Z,13.80
2019-05-28T12:54:29.809Z,11.77
2019-05-28T12:56:58.193Z,16.33
2019-05-28T12:59:27.435Z,15.40
2019-05-28T13:01:55.734Z,17.87
2019-05-28T13:04:24.077Z,17.10
2019-05-28T13:06:52.857Z,14.63
2019-05-28T13:09:23.439Z,12.30
2019-05-28T13:11:52.111Z,12.37
2019-05-28T13:14:20.863Z,14.17
2019-05-28T13:16:49.710Z,11.53
2019-05-28T13:19:20.241Z,11.20
2019-05-28T13:21:52.272Z,16.00
2019-05-28T13:24:23.327Z,10.20
2019-05-28T13:26:51.733Z,9.90
2019-05-28T13:29:20.423Z,10.93
2019-05-28T13:31:48.817Z,6.93
2019-05-28T13:34:18.481Z,6.30
2019-05-28T13:36:47.298Z,9.43
2019-05-28T13:39:15.715Z,8.33
2019-05-28T13:41:44.580Z,6.90
2019-05-28T13:44:13.222Z,8.00
2019-05-28T13:46:42.644Z,10.00
2019-05-28T13:49:14.076Z,6.87
2019-05-28T13:51:52.586Z,5.27
2019-05-28T13:54:23.061Z,5.53
2019-05-28T13:56:52.318Z,6.33
2019-05-28T13:59:21.500Z,6.53
2019-05-28T14:01:55.287Z,7.00
2019-05-28T14:04:32.148Z,6.00
2019-05-28T14:07:05.091Z,7.63
2019-05-28T14:09:38.509Z,6.10
2019-05-28T14:13:16.917Z,5.90
2019-05-28T14:16:24.957Z,6.63
2019-05-28T14:19:16.114Z,7.27
2019-05-28T14:26:25.609Z,8.80
2019-05-28T14:45:26.912Z,7.27
2019-05-28T14:49:20.042Z,7.40
2019-05-28T14:56:30.666Z,14.47
2019-05-28T14:59:03.631Z,14.73
2019-05-28T15:02:06.693Z,15.37
2019-05-28T15:04:35.776Z,10.70
2019-05-28T15:07:13.950Z,14.47
2019-05-28T15:09:44.884Z,11.27
2019-05-28T15:12:16.969Z,12.93
2019-05-28T15:14:50.398Z,16.10
2019-05-28T15:17:19.209Z,15.17
2019-05-28T15:19:48.008Z,17.03
2019-05-28T15:22:16.761Z,12.70
2019-05-28T15:24:49.910Z,14.37
2019-05-28T15:27:20.868Z,14.43
2019-05-28T15:29:50.801Z,16.00
2019-05-28T15:32:22.688Z,11.67
2019-05-28T15:34:51.229Z,13.57
2019-05-28T15:37:20.842Z,14.73
2019-05-28T15:39:50.090Z,9.37
2019-05-28T15:42:25.763Z,13.07
2019-05-28T15:45:10.069Z,12.20
2019-05-28T15:51:40.262Z,15.03
2019-05-28T15:54:36.804Z,13.23
2019-05-28T15:57:06.026Z,13.27
2019-05-28T15:59:35.192Z,14.27
2019-05-28T16:02:04.126Z,12.97
2019-05-28T16:04:48.840Z,12.27
2019-05-28T16:13:50.244Z,9.90
2019-05-28T16:16:19.981Z,8.43
2019-05-28T16:18:48.833Z,10.57
2019-05-28T16:21:17.380Z,11.97
2019-05-28T16:23:47.826Z,9.23
2019-05-28T16:26:16.358Z,10.50
2019-05-28T16:28:44.880Z,8.27
2019-05-28T16:31:13.717Z,9.00
2019-05-28T16:33:42.642Z,8.33
2019-05-28T16:36:11.207Z,8.17
2019-05-28T16:38:46.345Z,8.50
2019-05-28T16:41:18.189Z,8.40
2019-05-28T16:43:47.708Z,8.90
2019-05-28T16:46:22.187Z,7.67
2019-05-28T16:48:50.863Z,7.93
2019-05-28T16:51:23.060Z,6.63
2019-05-28T16:53:51.703Z,6.43
2019-05-28T16:56:20.224Z,6.77
2019-05-28T16:58:57.625Z,5.17
2019-05-28T17:01:51.374Z,5.47
2019-05-28T17:04:36.503Z,5.83
2019-05-28T17:07:44.697Z,5.27
2019-05-28T17:13:54.109Z,5.87
2019-05-28T17:16:29.562Z,6.27
2019-05-28T17:19:21.026Z,6.80
2019-05-28T17:21:51.204Z,5.20
2019-05-28T17:24:26.136Z,6.37
2019-05-28T17:26:56.307Z,6.37
2019-05-28T17:29:25.551Z,7.90
2019-05-28T17:31:54.578Z,7.07
2019-05-28T17:34:24.259Z,7.83
2019-05-28T17:36:52.612Z,6.43
2019-05-28T17:39:21.165Z,6.63
2019-05-28T17:41:49.562Z,7.53
2019-05-28T17:44:18.235Z,8.73
2019-05-28T17:46:46.737Z,8.27
2019-05-28T17:49:16.938Z,7.90
2019-05-28T17:51:45.232Z,6.50
2019-05-28T17:54:13.689Z,7.47
2019-05-28T17:56:42.240Z,8.07
2019-05-28T17:59:10.530Z,9.23
2019-05-28T18:01:38.850Z,8.83
2019-05-28T18:04:07.110Z,7.97
2019-05-28T18:06:35.498Z,8.60
2019-05-28T18:09:06.073Z,9.53
2019-05-28T18:11:34.484Z,9.43
2019-05-28T18:14:03.142Z,9.60
2019-05-28T18:16:31.792Z,9.60
2019-05-28T18:19:00.905Z,11.93
2019-05-28T18:21:29.351Z,11.50
2019-05-28T18:23:57.769Z,12.30
2019-05-28T18:26:26.215Z,14.03
2019-05-28T18:28:54.598Z,11.00
2019-05-28T18:31:23.097Z,11.87
2019-05-28T18:33:51.517Z,12.77
2019-05-28T18:36:19.910Z,12.63
2019-05-28T18:38:48.341Z,15.40
2019-05-28T18:41:21.523Z,15.50
2019-05-28T18:43:47.864Z,14.33
2019-05-28T18:46:16.261Z,14.73
2019-05-28T18:48:47.673Z,15.80
2019-05-28T18:51:16.214Z,13.83
2019-05-28T18:53:49.420Z,13.40
2019-05-28T18:56:18.562Z,14.20
2019-05-28T18:58:48.223Z,13.57
2019-05-28T19:01:16.755Z,13.73
2019-05-28T19:03:46.760Z,12.43
2019-05-28T19:06:17.556Z,13.40
2019-05-28T19:08:46.862Z,14.97
2019-05-28T19:11:34.940Z,13.97
2019-05-28T19:13:48.113Z,15.97
2019-05-28T19:16:18.710Z,15.07
2019-05-28T19:18:48.349Z,17.00
2019-05-28T19:21:16.971Z,22.07
2019-05-28T19:23:45.508Z,16.80
2019-05-28T19:26:14.092Z,20.83
2019-05-28T19:28:42.879Z,18.47
2019-05-28T19:31:12.111Z,43.23
2019-05-28T19:33:40.845Z,25.73
2019-05-28T19:36:11.733Z,20.73
2019-05-28T19:38:45.443Z,19.63
2019-05-28T19:41:12.209Z,20.73
2019-05-28T19:43:40.624Z,21.50
2019-05-28T19:46:09.349Z,20.13
2019-05-28T19:48:38.055Z,21.30
2019-05-28T19:51:06.702Z,18.90
2019-05-28T19:53:36.292Z,24.23
2019-05-28T19:56:05.203Z,23.30
2019-05-28T19:58:33.825Z,23.07
2019-05-28T20:01:05.007Z,21.20
2019-05-28T20:03:33.812Z,25.20
2019-05-28T20:06:04.511Z,23.63
2019-05-28T20:08:34.862Z,23.67
2019-05-28T20:11:05.324Z,26.07
2019-05-28T20:13:34.613Z,23.90
2019-05-28T20:16:04.373Z,27.50
2019-05-28T20:18:33.053Z,30.23
2019-05-28T20:21:04.185Z,31.93
2019-05-28T20:23:33.010Z,42.70
2019-05-28T20:26:01.638Z,36.97
2019-05-28T20:28:30.298Z,44.63
2019-05-28T20:30:59.676Z,43.50
2019-05-28T20:33:28.409Z,38.67
2019-05-28T20:35:57.146Z,39.97
2019-05-28T20:38:25.746Z,37.33
2019-05-28T20:40:54.229Z,37.60
2019-05-28T20:43:22.821Z,39.53
2019-05-28T20:45:51.240Z,36.67
2019-05-28T20:48:19.784Z,44.63
2019-05-28T20:50:51.069Z,44.97
2019-05-28T20:53:34.978Z,47.33
2019-05-28T20:55:50.001Z,45.73
2019-05-28T20:58:18.430Z,40.13
2019-05-28T21:00:47.534Z,44.27
2019-05-28T21:03:16.011Z,46.17
2019-05-28T21:05:44.658Z,40.57
2019-05-28T21:08:15.446Z,41.67
2019-05-28T21:10:44.128Z,37.27
2019-05-28T21:13:14.915Z,39.13
2019-05-28T21:15:43.596Z,39.00
2019-05-28T21:18:12.273Z,36.73
2019-05-28T21:20:40.703Z,38.57
2019-05-28T21:23:11.090Z,38.50
2019-05-28T21:25:39.568Z,41.73
2019-05-28T21:28:07.984Z,45.07
2019-05-28T21:30:36.619Z,42.00
2019-05-28T21:33:07.811Z,42.73
2019-05-28T21:35:36.236Z,41.80
2019-05-28T21:38:04.812Z,44.40
2019-05-28T21:40:33.300Z,44.40
2019-05-28T21:43:09.088Z,39.60
2019-05-28T21:45:32.381Z,44.97
2019-05-28T21:48:00.791Z,48.37
2019-05-28T21:50:29.263Z,46.33
2019-05-28T21:52:59.041Z,48.10
2019-05-28T21:55:27.572Z,38.63
2019-05-28T21:57:56.074Z,34.60
2019-05-28T22:00:37.559Z,33.10
2019-05-28T22:03:07.598Z,33.90
2019-05-28T22:05:37.732Z,35.07
2019-05-28T22:08:07.794Z,36.80
2019-05-28T22:10:36.617Z,36.60
2019-05-28T22:13:18.367Z,40.73
2019-05-28T22:15:35.876Z,44.80
2019-05-28T22:18:04.517Z,47.73
2019-05-28T22:20:33.278Z,43.67
2019-05-28T22:23:02.653Z,47.13
2019-05-28T22:25:31.597Z,52.57
2019-05-28T22:28:00.674Z,56.80
2019-05-28T22:30:31.036Z,53.93
2019-05-28T22:32:59.996Z,52.13
2019-05-28T22:35:29.831Z,45.40
2019-05-28T22:37:59.225Z,39.20
2019-05-28T22:40:30.574Z,43.40
2019-05-28T22:43:00.872Z,49.43
2019-05-28T22:45:29.569Z,49.13
2019-05-28T22:47:59.226Z,52.63
2019-05-28T22:50:27.829Z,54.43
2019-05-28T22:52:57.706Z,51.40
2019-05-28T22:55:26.394Z,51.07
2019-05-28T22:57:55.031Z,49.30
2019-05-28T23:00:24.315Z,51.53
2019-05-28T23:03:00.872Z,47.67
2019-05-28T23:05:32.481Z,49.77
2019-05-28T23:08:03.858Z,54.23
2019-05-28T23:10:36.635Z,49.60
2019-05-28T23:13:05.444Z,46.07
2019-05-28T23:15:35.869Z,46.37
2019-05-28T23:18:04.813Z,42.57
2019-05-28T23:20:36.014Z,48.80
2019-05-28T23:23:07.389Z,41.00
2019-05-28T23:25:36.090Z,40.97
2019-05-28T23:28:05.541Z,37.23
2019-05-28T23:30:52.030Z,38.47
2019-05-28T23:33:24.483Z,29.67
2019-05-28T23:35:56.162Z,28.77
2019-05-28T23:38:35.706Z,27.37
2019-05-28T23:41:17.775Z,25.63
2019-05-28T23:44:01.483Z,21.70
2019-05-28T23:46:30.356Z,23.13
2019-05-28T23:49:10.172Z,20.83
2019-05-28T23:51:42.358Z,20.20
2019-05-28T23:54:18.745Z,22.80
2019-05-28T23:56:45.754Z,22.00
2019-05-28T23:59:16.505Z,23.90
